CAP6 weather

Ingenika Airport
Ingenika, British Columbia, Canada

Public forecast

Using degrees Celsius for public forecast. Weather courtesy of forecast.io.

Closest aviation weather report (METAR) to Ingenika Airport

Closest report is Mackenzie Airport, 107.1 nm (198.3 km) SE. Retrieved 2019/10/14 05:00 UTC (38 minutes ago):

CYZY 140500Z AUTO 34004KT 320V020 9SM -RASN BKN009 OVC021 01/00 A2994 RMK SLP171

Closest aviation forecast (TAF) to Ingenika Airport

Closest forecast is Mackenzie Airport, 107.1 nm (198.3 km) SE. Retrieved 2019-10-14 01:00 UTC (5 hours ago):

TAF CYZY 140039Z 1401/1409 VRB03KT 1SM -SN BR BKN005 OVC015 TEMPO 1401/1404 6SM BR SCT005 BKN015 FM140400 VRB03KT 1SM BR BKN004 TEMPO 1404/1409 4SM BR BKN012 RMK FCST BASED ON AUTO OBS NXT FCST BY 140700Z